Time;durP1;ratioP1;P1;durP2;ratioP2;P2;SDS_P1;SDS_P2;PMS_P1;PMS_P2;Temp;Humidity;BMP_temperature;BMP_pressure;BME280_temperature;BME280_humidity;BME280_pressure;Samples;Min_cycle;Max_cycle;Signal;HPM_P1;HPM_P2
2022/12/12 00:01:15;;;;;;;;;;;18.10;59.50;;;;;;5027114;28;1246;-67
2022/12/12 00:03:41;;;;;;;;;;;18.10;59.50;;;;;;5026790;28;1196;-67
2022/12/12 00:06:06;;;;;;;;;;;18.10;59.60;;;;;;5054590;28;851;-68
2022/12/12 00:08:32;;;;;;;;;;;18.10;59.60;;;;;;5025469;28;1906;-68
2022/12/12 00:10:57;;;;;;;;;;;18.10;59.60;;;;;;5053030;28;1949;-68
2022/12/12 00:13:23;;;;;;;;;;;18.10;59.60;;;;;;5054649;28;1353;-68
2022/12/12 00:15:48;;;;;;;;;;;18.10;59.60;;;;;;5056012;28;1168;-67
2022/12/12 00:18:14;;;;;;;;;;;18.10;59.60;;;;;;5056636;28;1304;-67
2022/12/12 00:20:39;;;;;;;;;;;18.10;59.60;;;;;;5051970;28;1373;-67
2022/12/12 00:23:04;;;;;;;;;;;18.00;59.60;;;;;;5059252;28;934;-69
2022/12/12 00:25:30;;;;;;;;;;;18.00;59.60;;;;;;5037074;28;1265;-68
2022/12/12 00:27:55;;;;;;;;;;;18.10;59.70;;;;;;5053066;28;867;-68
2022/12/12 00:30:21;;;;;;;;;;;18.00;59.70;;;;;;5054102;28;1911;-68
2022/12/12 00:32:46;;;;;;;;;;;18.00;59.60;;;;;;5054382;28;1563;-68
2022/12/12 00:35:12;;;;;;;;;;;18.00;59.60;;;;;;5040903;28;1097;-68
2022/12/12 00:37:37;;;;;;;;;;;18.00;59.60;;;;;;5058611;28;848;-68
2022/12/12 00:40:03;;;;;;;;;;;18.00;59.70;;;;;;5051836;28;1292;-67
2022/12/12 00:42:29;;;;;;;;;;;18.00;59.70;;;;;;5040765;28;868;-68
2022/12/12 00:44:54;;;;;;;;;;;18.00;59.70;;;;;;5055005;28;876;-68
2022/12/12 00:47:19;;;;;;;;;;;18.00;59.70;;;;;;5039526;28;1180;-68
2022/12/12 00:49:45;;;;;;;;;;;18.00;59.70;;;;;;5047630;28;1967;-68
2022/12/12 00:52:10;;;;;;;;;;;18.00;59.70;;;;;;5033865;28;911;-68
2022/12/12 00:54:36;;;;;;;;;;;18.00;59.70;;;;;;5057191;28;1017;-68
2022/12/12 00:57:01;;;;;;;;;;;18.00;59.70;;;;;;5052463;28;827;-68
2022/12/12 00:59:27;;;;;;;;;;;18.00;59.70;;;;;;5034551;28;884;-68
2022/12/12 01:01:52;;;;;;;;;;;18.00;59.70;;;;;;5040772;28;1375;-68
2022/12/12 01:04:18;;;;;;;;;;;18.00;59.70;;;;;;5053355;28;1207;-68
2022/12/12 01:06:43;;;;;;;;;;;18.00;59.70;;;;;;5041185;28;864;-68
2022/12/12 01:09:09;;;;;;;;;;;18.00;59.70;;;;;;5050365;28;1907;-68
2022/12/12 01:11:34;;;;;;;;;;;18.00;59.80;;;;;;5038720;28;1531;-68
2022/12/12 01:14:00;;;;;;;;;;;18.00;59.70;;;;;;5053694;28;1302;-68
2022/12/12 01:16:26;;;;;;;;;;;18.00;59.70;;;;;;5021791;28;1182;-68
2022/12/12 01:18:52;;;;;;;;;;;18.00;59.80;;;;;;5043051;28;1410;-68
2022/12/12 01:21:17;;;;;;;;;;;18.00;59.80;;;;;;5040684;28;1375;-68
2022/12/12 01:23:43;;;;;;;;;;;18.00;59.80;;;;;;5052274;28;1623;-68
2022/12/12 01:26:13;;;;;;;;;;;18.00;59.80;;;;;;5051186;28;871;-68
2022/12/12 01:28:38;;;;;;;;;;;18.00;59.80;;;;;;5037192;28;1961;-68
2022/12/12 01:31:04;;;;;;;;;;;18.00;59.80;;;;;;5035616;28;1296;-68
2022/12/12 01:33:29;;;;;;;;;;;18.00;59.80;;;;;;5049516;28;899;-68
2022/12/12 01:35:55;;;;;;;;;;;18.00;59.80;;;;;;5055221;28;942;-68
2022/12/12 01:38:21;;;;;;;;;;;18.00;59.80;;;;;;5051744;28;840;-67
2022/12/12 01:40:46;;;;;;;;;;;18.00;59.80;;;;;;5058996;28;1266;-68
2022/12/12 01:43:12;;;;;;;;;;;18.00;59.80;;;;;;5048829;28;994;-68
2022/12/12 01:45:53;;;;;;;;;;;18.00;59.80;;;;;;5023439;28;1109;-68
2022/12/12 01:48:19;;;;;;;;;;;18.00;59.80;;;;;;5041687;28;1405;-68
2022/12/12 01:50:45;;;;;;;;;;;17.90;59.80;;;;;;5053452;28;1927;-68
2022/12/12 01:53:10;;;;;;;;;;;18.00;59.80;;;;;;5053529;28;812;-68
2022/12/12 01:55:36;;;;;;;;;;;18.00;59.80;;;;;;5010403;28;1157;-68
2022/12/12 01:58:01;;;;;;;;;;;17.90;59.80;;;;;;5056027;28;801;-68
2022/12/12 02:00:27;;;;;;;;;;;18.00;59.80;;;;;;5052075;28;1331;-67
2022/12/12 02:02:54;;;;;;;;;;;17.90;59.80;;;;;;5052983;28;828;-68
2022/12/12 02:05:22;;;;;;;;;;;17.90;59.80;;;;;;5051461;28;1011;-68
2022/12/12 02:07:48;;;;;;;;;;;18.00;60.60;;;;;;5050993;28;1291;-68
2022/12/12 02:10:13;;;;;;;;;;;18.00;59.90;;;;;;5036878;28;1962;-68
2022/12/12 02:12:39;;;;;;;;;;;17.90;59.80;;;;;;5053360;28;868;-68
2022/12/12 02:15:04;;;;;;;;;;;17.90;59.80;;;;;;5042605;28;1860;-68
2022/12/12 02:17:30;;;;;;;;;;;17.90;59.80;;;;;;5057419;28;854;-68
2022/12/12 02:20:11;;;;;;;;;;;17.90;59.90;;;;;;5056806;28;1290;-68
2022/12/12 02:22:55;;;;;;;;;;;17.90;59.80;;;;;;5050098;28;1191;-67
2022/12/12 02:25:30;;;;;;;;;;;17.90;59.80;;;;;;5057980;28;968;-68
2022/12/12 02:27:56;;;;;;;;;;;17.90;59.90;;;;;;5040609;28;815;-68
2022/12/12 02:30:47;;;;;;;;;;;17.90;60.50;;;;;;5055400;28;1910;-68
2022/12/12 02:33:16;;;;;;;;;;;17.90;59.80;;;;;;5049017;28;1080;-68
2022/12/12 02:35:48;;;;;;;;;;;17.90;59.90;;;;;;5060458;28;947;-68
2022/12/12 02:38:20;;;;;;;;;;;17.90;59.90;;;;;;5041158;28;840;-68
2022/12/12 02:41:22;;;;;;;;;;;17.90;59.90;;;;;;5038060;28;1361;-68
2022/12/12 02:44:02;;;;;;;;;;;17.90;59.90;;;;;;4987130;28;1548;-68
2022/12/12 02:46:28;;;;;;;;;;;17.90;59.90;;;;;;5053230;28;961;-68
2022/12/12 02:48:58;;;;;;;;;;;17.90;59.90;;;;;;5057040;28;1987;-68
2022/12/12 02:51:24;;;;;;;;;;;17.90;59.90;;;;;;5041402;28;1370;-68
2022/12/12 02:53:49;;;;;;;;;;;17.90;59.90;;;;;;5038479;28;1411;-68
2022/12/12 02:56:33;;;;;;;;;;;17.90;59.90;;;;;;5053682;28;1123;-68
2022/12/12 02:58:59;;;;;;;;;;;17.90;59.90;;;;;;5056198;28;994;-68
2022/12/12 03:01:47;;;;;;;;;;;17.90;60.70;;;;;;5042285;28;1326;-68
2022/12/12 03:09:59;;;;;;;;;;;17.90;60.00;;;;;;5028856;28;1927;-68
2022/12/12 03:12:37;;;;;;;;;;;17.90;59.90;;;;;;5042597;28;1028;-68
2022/12/12 03:15:11;;;;;;;;;;;17.90;59.90;;;;;;5058951;28;1303;-68
2022/12/12 03:17:55;;;;;;;;;;;17.90;60.00;;;;;;5058572;28;939;-68
2022/12/12 03:20:47;;;;;;;;;;;17.90;59.90;;;;;;5055184;28;1266;-68
2022/12/12 03:23:13;;;;;;;;;;;17.90;60.00;;;;;;5031511;28;1358;-68
2022/12/12 03:26:04;;;;;;;;;;;17.90;60.00;;;;;;5039964;28;998;-68
2022/12/12 03:28:31;;;;;;;;;;;17.90;60.00;;;;;;5049456;28;1910;-68
2022/12/12 03:30:56;;;;;;;;;;;17.90;60.00;;;;;;5039587;28;1280;-68
2022/12/12 03:33:48;;;;;;;;;;;17.90;60.00;;;;;;5042155;28;903;-67
2022/12/12 03:36:18;;;;;;;;;;;17.90;60.00;;;;;;5042547;28;1288;-68
2022/12/12 03:38:47;;;;;;;;;;;17.90;60.00;;;;;;5043658;28;827;-68
2022/12/12 03:41:14;;;;;;;;;;;17.80;59.90;;;;;;5038440;28;1264;-67
2022/12/12 03:43:43;;;;;;;;;;;17.90;60.00;;;;;;5024795;28;1165;-67
2022/12/12 03:46:13;;;;;;;;;;;17.80;60.00;;;;;;5038925;28;827;-67
2022/12/12 03:48:39;;;;;;;;;;;17.90;60.00;;;;;;5036439;28;1942;-68
2022/12/12 03:51:14;;;;;;;;;;;17.90;60.00;;;;;;5039997;28;1280;-68
2022/12/12 03:54:00;;;;;;;;;;;17.90;60.00;;;;;;5043330;28;916;-68
2022/12/12 03:56:28;;;;;;;;;;;17.80;60.70;;;;;;5040748;28;970;-68
2022/12/12 03:59:05;;;;;;;;;;;17.80;60.00;;;;;;5049738;28;832;-68
2022/12/12 04:01:47;;;;;;;;;;;17.90;60.00;;;;;;5040973;28;1587;-68
2022/12/12 04:04:42;;;;;;;;;;;17.80;60.00;;;;;;5039334;28;879;-68
2022/12/12 04:07:10;;;;;;;;;;;17.90;60.00;;;;;;5039624;28;1278;-68
2022/12/12 04:15:16;;;;;;;;;;;17.90;60.10;;;;;;5029406;28;1264;-68
2022/12/12 04:17:43;;;;;;;;;;;17.80;60.10;;;;;;5051222;28;891;-68
2022/12/12 04:23:25;;;;;;;;;;;17.80;60.00;;;;;;5051749;28;1163;-68
2022/12/12 04:29:02;;;;;;;;;;;17.90;60.10;;;;;;5056483;28;1931;-68
2022/12/12 04:31:28;;;;;;;;;;;17.80;60.00;;;;;;5054587;28;1267;-69
2022/12/12 04:33:54;;;;;;;;;;;17.90;60.00;;;;;;5037932;28;1328;-69
2022/12/12 04:36:19;;;;;;;;;;;17.80;60.00;;;;;;5013684;28;1438;-69
2022/12/12 04:38:45;;;;;;;;;;;17.80;60.00;;;;;;5054239;28;1277;-69
2022/12/12 04:41:10;;;;;;;;;;;17.90;60.00;;;;;;5050594;28;1414;-69
2022/12/12 04:43:36;;;;;;;;;;;17.90;60.00;;;;;;5021162;28;1300;-68
2022/12/12 04:46:06;;;;;;;;;;;17.90;60.00;;;;;;5036875;28;1545;-68
2022/12/12 04:48:45;;;;;;;;;;;17.90;59.90;;;;;;5039936;28;1891;-68
2022/12/12 04:51:11;;;;;;;;;;;17.90;59.90;;;;;;5012818;28;1447;-68
2022/12/12 04:53:38;;;;;;;;;;;17.90;59.80;;;;;;5054082;28;904;-67
2022/12/12 04:56:04;;;;;;;;;;;17.90;59.80;;;;;;5037079;28;1543;-68
2022/12/12 04:58:30;;;;;;;;;;;18.00;59.70;;;;;;5034243;28;1768;-68
2022/12/12 05:01:01;;;;;;;;;;;18.00;59.70;;;;;;5036909;28;1528;-68
2022/12/12 05:03:35;;;;;;;;;;;18.00;59.60;;;;;;5023491;28;1232;-67
2022/12/12 05:06:10;;;;;;;;;;;18.00;59.50;;;;;;5039410;28;763;-68
2022/12/12 05:08:42;;;;;;;;;;;18.10;59.50;;;;;;5037741;28;1959;-69
2022/12/12 05:11:08;;;;;;;;;;;18.10;59.40;;;;;;5043067;28;1286;-69
2022/12/12 05:13:37;;;;;;;;;;;18.10;59.40;;;;;;5055222;28;1404;-70
2022/12/12 05:16:03;;;;;;;;;;;18.10;59.30;;;;;;5054636;28;859;-69
2022/12/12 05:18:30;;;;;;;;;;;18.10;59.30;;;;;;5056620;28;1213;-69
2022/12/12 05:20:55;;;;;;;;;;;18.20;59.30;;;;;;5038176;28;1269;-70
2022/12/12 05:23:21;;;;;;;;;;;18.20;59.20;;;;;;5050498;28;1006;-73
2022/12/12 05:25:46;;;;;;;;;;;18.20;59.20;;;;;;5041764;28;801;-73
2022/12/12 05:28:11;;;;;;;;;;;18.20;59.20;;;;;;5039966;28;935;-73
2022/12/12 05:30:37;;;;;;;;;;;18.20;59.10;;;;;;5039909;28;1980;-73
2022/12/12 05:33:02;;;;;;;;;;;18.20;59.10;;;;;;5055200;28;879;-72
2022/12/12 05:35:28;;;;;;;;;;;18.20;59.10;;;;;;5052893;28;760;-70
2022/12/12 05:37:53;;;;;;;;;;;18.20;59.00;;;;;;5060432;28;856;-68
2022/12/12 05:40:19;;;;;;;;;;;18.20;59.00;;;;;;5049805;28;1256;-68
2022/12/12 05:42:44;;;;;;;;;;;18.20;59.00;;;;;;5048850;28;856;-68
2022/12/12 05:45:10;;;;;;;;;;;18.20;59.50;;;;;;5048751;28;976;-68
2022/12/12 05:47:35;;;;;;;;;;;18.30;59.00;;;;;;5060013;28;773;-68
2022/12/12 05:50:01;;;;;;;;;;;18.30;58.90;;;;;;5058777;28;1969;-68
2022/12/12 05:52:26;;;;;;;;;;;18.30;58.90;;;;;;5053725;28;867;-68
2022/12/12 05:54:52;;;;;;;;;;;18.30;58.90;;;;;;5053291;28;1263;-67
2022/12/12 05:57:17;;;;;;;;;;;18.30;58.90;;;;;;5055424;28;761;-68
2022/12/12 05:59:46;;;;;;;;;;;18.30;58.90;;;;;;5037436;28;1334;-68
2022/12/12 06:02:12;;;;;;;;;;;18.30;58.90;;;;;;5055571;28;986;-67
2022/12/12 06:04:38;;;;;;;;;;;18.30;58.80;;;;;;5056631;28;876;-69
2022/12/12 06:07:03;;;;;;;;;;;18.30;58.90;;;;;;5053491;28;899;-69
2022/12/12 06:09:28;;;;;;;;;;;18.30;58.80;;;;;;5049716;28;1906;-69
2022/12/12 06:11:54;;;;;;;;;;;18.30;58.80;;;;;;5049075;28;1361;-70
2022/12/12 06:14:19;;;;;;;;;;;18.30;58.80;;;;;;5051830;28;1268;-70
2022/12/12 06:16:45;;;;;;;;;;;18.30;58.80;;;;;;5034337;28;1118;-70
2022/12/12 06:19:10;;;;;;;;;;;18.30;58.90;;;;;;5048653;28;1087;-70
2022/12/12 06:21:36;;;;;;;;;;;18.30;58.90;;;;;;5055404;28;1282;-69
2022/12/12 06:24:03;;;;;;;;;;;18.30;58.90;;;;;;5051418;28;1005;-68
2022/12/12 06:26:29;;;;;;;;;;;18.30;58.90;;;;;;5035163;28;771;-70
2022/12/12 06:28:54;;;;;;;;;;;18.20;58.90;;;;;;5054580;28;1973;-70
2022/12/12 06:31:20;;;;;;;;;;;18.20;58.90;;;;;;5054204;28;1260;-68
2022/12/12 06:33:45;;;;;;;;;;;18.20;58.90;;;;;;5041747;28;1030;-69
2022/12/12 06:36:17;;;;;;;;;;;18.20;59.50;;;;;;5049377;28;853;-69
2022/12/12 06:38:43;;;;;;;;;;;18.20;59.00;;;;;;5053184;28;876;-68
2022/12/12 06:41:09;;;;;;;;;;;18.20;59.00;;;;;;5039798;28;1351;-68
2022/12/12 06:43:35;;;;;;;;;;;18.20;59.00;;;;;;5038684;28;889;-66
2022/12/12 06:46:04;;;;;;;;;;;18.20;59.00;;;;;;5035076;28;876;-68
2022/12/12 06:48:30;;;;;;;;;;;18.20;59.10;;;;;;5052825;28;1077;-68
2022/12/12 06:50:55;;;;;;;;;;;18.20;59.10;;;;;;5051432;28;1993;-68
2022/12/12 06:53:21;;;;;;;;;;;18.20;59.10;;;;;;5055662;28;1002;-70
2022/12/12 06:55:46;;;;;;;;;;;18.20;59.10;;;;;;5052101;28;876;-70
2022/12/12 06:58:12;;;;;;;;;;;18.20;59.10;;;;;;5044227;28;1161;-70
2022/12/12 07:00:37;;;;;;;;;;;18.20;59.20;;;;;;5059681;28;1275;-69
2022/12/12 07:03:02;;;;;;;;;;;18.20;59.20;;;;;;5055293;28;876;-69
2022/12/12 07:05:28;;;;;;;;;;;18.10;59.10;;;;;;5057524;28;879;-69
2022/12/12 07:07:53;;;;;;;;;;;18.10;59.20;;;;;;5042779;28;1328;-69
2022/12/12 07:10:19;;;;;;;;;;;18.10;59.20;;;;;;5042521;28;1957;-69
2022/12/12 07:12:44;;;;;;;;;;;18.10;59.20;;;;;;5054590;28;1269;-70
2022/12/12 07:15:10;;;;;;;;;;;18.10;59.30;;;;;;5054715;28;1611;-70
2022/12/12 07:17:35;;;;;;;;;;;18.10;59.20;;;;;;5055759;28;935;-70
2022/12/12 07:20:01;;;;;;;;;;;18.10;59.30;;;;;;5052920;28;1296;-70
2022/12/12 07:22:26;;;;;;;;;;;18.10;59.30;;;;;;5054191;28;860;-69
2022/12/12 07:24:52;;;;;;;;;;;18.10;59.30;;;;;;5053242;28;874;-70
2022/12/12 07:27:17;;;;;;;;;;;18.10;59.30;;;;;;5055773;28;920;-72
2022/12/12 07:29:43;;;;;;;;;;;18.10;59.30;;;;;;5056086;28;1965;-71
2022/12/12 07:32:08;;;;;;;;;;;18.10;59.40;;;;;;5024482;28;856;-71
2022/12/12 07:34:34;;;;;;;;;;;18.10;59.40;;;;;;5041451;28;892;-70
2022/12/12 07:36:59;;;;;;;;;;;18.10;59.40;;;;;;5056301;28;852;-71
2022/12/12 07:39:25;;;;;;;;;;;18.10;59.40;;;;;;5057417;28;912;-70
2022/12/12 07:41:50;;;;;;;;;;;18.10;60.10;;;;;;5037981;28;1600;-69
2022/12/12 07:44:16;;;;;;;;;;;18.00;59.40;;;;;;5053334;28;1663;-68
2022/12/12 07:46:41;;;;;;;;;;;18.00;59.40;;;;;;5054460;28;788;-68
2022/12/12 07:49:07;;;;;;;;;;;18.00;59.50;;;;;;5054132;28;1977;-69
2022/12/12 07:51:32;;;;;;;;;;;18.00;59.50;;;;;;5052858;28;1256;-70
2022/12/12 07:53:58;;;;;;;;;;;18.00;59.50;;;;;;5053343;28;811;-70
2022/12/12 07:56:23;;;;;;;;;;;18.00;59.50;;;;;;5051854;28;934;-70
2022/12/12 07:58:49;;;;;;;;;;;18.00;59.50;;;;;;5039574;28;1314;-70
2022/12/12 08:01:19;;;;;;;;;;;18.00;59.50;;;;;;5053678;28;1263;-70
2022/12/12 08:03:44;;;;;;;;;;;18.00;59.50;;;;;;5040440;28;900;-70
2022/12/12 08:06:10;;;;;;;;;;;18.00;59.50;;;;;;5054259;28;936;-69
2022/12/12 08:08:36;;;;;;;;;;;18.00;59.50;;;;;;5058116;28;820;-69
2022/12/12 08:11:05;;;;;;;;;;;18.00;59.50;;;;;;5051353;28;1957;-69
2022/12/12 08:13:31;;;;;;;;;;;18.00;59.40;;;;;;5054142;28;1341;-69
2022/12/12 08:15:56;;;;;;;;;;;18.10;59.40;;;;;;5041185;28;1017;-69
2022/12/12 08:18:22;;;;;;;;;;;18.10;59.40;;;;;;5054118;28;906;-69
2022/12/12 08:20:47;;;;;;;;;;;18.10;59.40;;;;;;5040755;28;1253;-69
2022/12/12 08:23:13;;;;;;;;;;;18.10;59.40;;;;;;5053645;28;1013;-69
2022/12/12 08:25:38;;;;;;;;;;;18.10;59.30;;;;;;5040278;28;1156;-69
2022/12/12 08:28:04;;;;;;;;;;;18.10;59.30;;;;;;5053314;28;871;-69
2022/12/12 08:30:29;;;;;;;;;;;18.10;59.20;;;;;;5052313;28;2113;-69
2022/12/12 08:32:55;;;;;;;;;;;18.10;59.20;;;;;;5056196;28;800;-69
2022/12/12 08:35:20;;;;;;;;;;;18.10;59.20;;;;;;5054007;28;1360;-69
2022/12/12 08:37:46;;;;;;;;;;;18.20;59.20;;;;;;5034431;28;1512;-69
2022/12/12 08:40:11;;;;;;;;;;;18.10;59.20;;;;;;5054166;28;1253;-69
2022/12/12 08:42:37;;;;;;;;;;;18.20;59.20;;;;;;5055612;28;951;-69
2022/12/12 08:45:02;;;;;;;;;;;18.20;59.20;;;;;;5053542;28;900;-69
2022/12/12 08:47:28;;;;;;;;;;;18.20;59.20;;;;;;5055913;28;862;-69
2022/12/12 08:49:53;;;;;;;;;;;18.20;59.10;;;;;;5054180;28;1910;-69
2022/12/12 08:52:19;;;;;;;;;;;18.20;59.10;;;;;;5053418;28;970;-69
2022/12/12 08:54:44;;;;;;;;;;;18.20;59.10;;;;;;5054455;28;1230;-69
2022/12/12 08:57:10;;;;;;;;;;;18.20;59.10;;;;;;5051884;28;935;-69
2022/12/12 08:59:35;;;;;;;;;;;18.20;59.10;;;;;;5052588;28;1232;-69
2022/12/12 09:02:01;;;;;;;;;;;18.20;59.00;;;;;;5056280;28;896;-69
2022/12/12 09:04:26;;;;;;;;;;;18.20;59.00;;;;;;5038106;28;902;-69
2022/12/12 09:06:52;;;;;;;;;;;18.20;58.90;;;;;;5048206;28;883;-70
2022/12/12 09:09:17;;;;;;;;;;;18.20;58.90;;;;;;5050119;28;1960;-69
2022/12/12 09:11:43;;;;;;;;;;;18.20;58.90;;;;;;5050748;28;1264;-69
2022/12/12 09:14:08;;;;;;;;;;;18.30;58.90;;;;;;5050795;28;1018;-70
2022/12/12 09:16:33;;;;;;;;;;;18.30;58.90;;;;;;5053285;28;946;-69
2022/12/12 09:18:59;;;;;;;;;;;18.30;58.90;;;;;;5052846;28;1155;-69
2022/12/12 09:21:24;;;;;;;;;;;18.30;58.90;;;;;;5049646;28;1268;-69
2022/12/12 09:23:50;;;;;;;;;;;18.30;58.90;;;;;;5050507;28;912;-69
2022/12/12 09:26:16;;;;;;;;;;;18.30;58.90;;;;;;5054472;28;860;-71
2022/12/12 09:28:42;;;;;;;;;;;18.30;58.80;;;;;;5042738;28;1938;-69
2022/12/12 09:31:08;;;;;;;;;;;18.30;58.80;;;;;;5058159;28;1288;-71
2022/12/12 09:33:33;;;;;;;;;;;18.30;58.80;;;;;;5054634;28;1022;-69
2022/12/12 09:35:59;;;;;;;;;;;18.30;58.80;;;;;;5043784;28;812;-69
2022/12/12 09:38:26;;;;;;;;;;;18.30;58.80;;;;;;5052928;28;856;-70
2022/12/12 09:40:54;;;;;;;;;;;18.30;58.80;;;;;;5039359;28;1250;-71
2022/12/12 09:43:21;;;;;;;;;;;18.30;58.80;;;;;;5047363;28;825;-69
2022/12/12 09:45:47;;;;;;;;;;;18.30;58.70;;;;;;5035699;28;887;-69
2022/12/12 09:48:19;;;;;;;;;;;18.30;58.70;;;;;;5037242;28;848;-71
2022/12/12 09:50:47;;;;;;;;;;;18.30;58.70;;;;;;5038617;28;1902;-70
2022/12/12 09:53:14;;;;;;;;;;;18.40;58.80;;;;;;5034857;28;1478;-72
2022/12/12 09:55:45;;;;;;;;;;;18.30;58.70;;;;;;5051906;28;1574;-70
2022/12/12 09:58:20;;;;;;;;;;;18.30;58.70;;;;;;5050448;28;813;-74
2022/12/12 10:00:52;;;;;;;;;;;18.30;58.70;;;;;;5036620;28;1357;-73
2022/12/12 10:03:36;;;;;;;;;;;18.30;58.70;;;;;;5037801;28;879;-72
2022/12/12 10:06:05;;;;;;;;;;;18.30;58.70;;;;;;5039233;28;1318;-71
2022/12/12 10:08:34;;;;;;;;;;;18.30;58.70;;;;;;5038772;28;959;-71
2022/12/12 10:11:48;;;;;;;;;;;18.30;58.70;;;;;;5055318;28;1953;-72
2022/12/12 10:13:52;;;;;;;;;;;18.30;58.60;;;;;;5043272;28;1031;-70
2022/12/12 10:16:17;;;;;;;;;;;18.40;58.70;;;;;;5051762;28;828;-70
2022/12/12 10:18:46;;;;;;;;;;;18.40;58.70;;;;;;5052263;28;837;-70
2022/12/12 10:21:16;;;;;;;;;;;18.30;58.60;;;;;;5052397;28;1809;-70
2022/12/12 10:23:52;;;;;;;;;;;18.30;58.60;;;;;;5037635;28;998;-70
2022/12/12 10:26:24;;;;;;;;;;;18.30;58.60;;;;;;5041633;28;1220;-71
2022/12/12 10:28:52;;;;;;;;;;;18.30;58.60;;;;;;5046809;28;1918;-68
2022/12/12 10:31:29;;;;;;;;;;;18.30;58.70;;;;;;5052791;28;1396;-71
2022/12/12 10:34:13;;;;;;;;;;;18.30;58.70;;;;;;5054409;28;1188;-69
2022/12/12 10:36:57;;;;;;;;;;;18.30;58.70;;;;;;5056211;28;1438;-70
2022/12/12 10:39:34;;;;;;;;;;;18.30;58.70;;;;;;5052909;28;1351;-69
2022/12/12 10:42:15;;;;;;;;;;;18.30;58.70;;;;;;5056125;28;1494;-69
2022/12/12 10:44:46;;;;;;;;;;;18.30;58.80;;;;;;5055359;28;1013;-69
2022/12/12 10:47:12;;;;;;;;;;;18.30;58.80;;;;;;5057407;28;883;-69
2022/12/12 10:49:37;;;;;;;;;;;18.30;58.80;;;;;;5037040;28;1906;-69
2022/12/12 10:52:03;;;;;;;;;;;18.30;58.80;;;;;;5028644;28;1276;-69
2022/12/12 10:54:30;;;;;;;;;;;18.30;58.80;;;;;;5058176;28;931;-70
2022/12/12 10:57:18;;;;;;;;;;;18.30;58.80;;;;;;5056258;28;796;-70
2022/12/12 10:59:48;;;;;;;;;;;18.30;58.70;;;;;;5040826;28;1312;-72
2022/12/12 11:02:20;;;;;;;;;;;18.30;58.70;;;;;;5040246;28;843;-71
2022/12/12 11:04:45;;;;;;;;;;;18.30;58.70;;;;;;5043672;28;1576;-70
2022/12/12 11:07:16;;;;;;;;;;;18.30;58.70;;;;;;5053004;28;963;-70
2022/12/12 11:09:43;;;;;;;;;;;18.30;58.60;;;;;;5040121;28;1902;-71
2022/12/12 11:12:09;;;;;;;;;;;18.40;58.60;;;;;;5041524;28;1010;-71
2022/12/12 11:14:35;;;;;;;;;;;18.30;58.60;;;;;;5055639;28;1281;-71
2022/12/12 11:17:01;;;;;;;;;;;18.40;58.60;;;;;;5038308;28;867;-71
2022/12/12 11:19:26;;;;;;;;;;;18.40;58.60;;;;;;5039490;28;1074;-71
2022/12/12 11:21:52;;;;;;;;;;;18.40;58.60;;;;;;5039853;28;1161;-71
2022/12/12 11:24:19;;;;;;;;;;;18.40;58.60;;;;;;5053870;28;1488;-71
2022/12/12 11:26:45;;;;;;;;;;;18.40;58.50;;;;;;5024151;28;1487;-72
2022/12/12 11:29:22;;;;;;;;;;;18.40;58.50;;;;;;5035179;28;1915;-71
2022/12/12 11:31:47;;;;;;;;;;;18.40;58.50;;;;;;5039004;28;1318;-71
2022/12/12 11:34:13;;;;;;;;;;;18.40;58.50;;;;;;5042317;28;835;-70
2022/12/12 11:36:39;;;;;;;;;;;18.40;58.50;;;;;;5023990;28;1152;-71
2022/12/12 11:39:15;;;;;;;;;;;18.40;58.50;;;;;;5040120;28;970;-69
2022/12/12 11:41:59;;;;;;;;;;;18.40;58.50;;;;;;5054112;28;1271;-70
2022/12/12 11:44:33;;;;;;;;;;;18.40;58.50;;;;;;5039010;28;1614;-70
2022/12/12 11:47:16;;;;;;;;;;;18.40;58.40;;;;;;5056064;28;939;-71
2022/12/12 11:49:46;;;;;;;;;;;18.40;58.50;;;;;;5058617;28;1898;-72
2022/12/12 11:52:21;;;;;;;;;;;18.40;58.40;;;;;;5059259;28;833;-72
2022/12/12 11:54:46;;;;;;;;;;;18.40;58.40;;;;;;5034828;28;922;-72
2022/12/12 12:00:43;;;;;;;;;;;18.50;58.40;;;;;;5056482;28;1531;-70
2022/12/12 12:03:17;;;;;;;;;;;18.40;58.40;;;;;;5051819;28;1575;-70
2022/12/12 12:05:51;;;;;;;;;;;18.50;58.40;;;;;;5052589;28;901;-70
2022/12/12 12:08:30;;;;;;;;;;;18.50;58.40;;;;;;5041374;28;1402;-70
2022/12/12 12:10:55;;;;;;;;;;;18.40;58.40;;;;;;5038362;28;1902;-70
2022/12/12 12:13:33;;;;;;;;;;;18.50;58.40;;;;;;5054686;28;1345;-70
2022/12/12 12:16:11;;;;;;;;;;;18.50;58.40;;;;;;5055643;28;729;-70
2022/12/12 12:18:44;;;;;;;;;;;18.50;58.40;;;;;;5055589;28;843;-70
2022/12/12 12:21:16;;;;;;;;;;;18.50;58.40;;;;;;5039235;28;1345;-70
2022/12/12 12:24:01;;;;;;;;;;;18.50;58.40;;;;;;5044501;28;868;-70
2022/12/12 12:26:30;;;;;;;;;;;18.50;58.40;;;;;;5037821;28;1095;-71
2022/12/12 12:29:05;;;;;;;;;;;18.50;58.40;;;;;;5056198;28;1910;-70
2022/12/12 12:31:31;;;;;;;;;;;18.50;58.40;;;;;;5041478;28;1362;-70
2022/12/12 12:34:08;;;;;;;;;;;18.50;58.40;;;;;;5057010;28;870;-71
2022/12/12 12:36:40;;;;;;;;;;;18.50;58.40;;;;;;5055094;28;824;-71
2022/12/12 12:39:24;;;;;;;;;;;18.50;58.40;;;;;;5038386;28;1484;-70
2022/12/12 12:41:54;;;;;;;;;;;18.50;58.40;;;;;;5057403;28;1260;-71
2022/12/12 12:44:35;;;;;;;;;;;18.50;58.40;;;;;;5024996;28;950;-71
2022/12/12 12:47:07;;;;;;;;;;;18.50;58.40;;;;;;5041100;28;809;-71
2022/12/12 12:49:34;;;;;;;;;;;18.50;58.50;;;;;;5050408;28;1954;-71
2022/12/12 12:52:01;;;;;;;;;;;18.50;58.50;;;;;;5036656;28;1002;-71
2022/12/12 12:54:29;;;;;;;;;;;18.50;58.40;;;;;;5053613;28;812;-71
2022/12/12 12:56:59;;;;;;;;;;;18.50;58.40;;;;;;5054703;28;812;-70
2022/12/12 12:59:27;;;;;;;;;;;18.40;58.40;;;;;;5039554;28;884;-70
2022/12/12 13:01:52;;;;;;;;;;;18.50;58.50;;;;;;5057324;28;1362;-72
2022/12/12 13:04:24;;;;;;;;;;;18.40;58.40;;;;;;5025073;28;1204;-71
2022/12/12 13:06:51;;;;;;;;;;;18.40;58.40;;;;;;5059726;28;836;-72
2022/12/12 13:09:35;;;;;;;;;;;18.40;58.40;;;;;;5042208;28;1899;-72
2022/12/12 13:12:08;;;;;;;;;;;18.40;58.40;;;;;;5059325;28;856;-72
2022/12/12 13:14:38;;;;;;;;;;;18.40;58.50;;;;;;5043025;28;1288;-72
2022/12/12 13:17:05;;;;;;;;;;;18.50;58.50;;;;;;5036569;28;1512;-72
2022/12/12 13:19:34;;;;;;;;;;;18.40;58.40;;;;;;5039473;28;1457;-73
2022/12/12 13:22:02;;;;;;;;;;;18.40;58.50;;;;;;5052801;28;1512;-71
2022/12/12 13:24:33;;;;;;;;;;;18.50;58.50;;;;;;5042410;28;959;-72
2022/12/12 13:27:12;;;;;;;;;;;18.50;58.50;;;;;;5035201;28;860;-72
2022/12/12 13:29:56;;;;;;;;;;;18.50;58.40;;;;;;5033519;28;1953;-72
2022/12/12 13:32:28;;;;;;;;;;;18.50;58.40;;;;;;5052284;28;978;-72
2022/12/12 13:34:54;;;;;;;;;;;18.40;58.40;;;;;;5048598;28;828;-72
2022/12/12 13:37:20;;;;;;;;;;;18.50;58.40;;;;;;5040100;28;876;-72
2022/12/12 13:39:46;;;;;;;;;;;18.50;58.40;;;;;;5038201;28;1287;-71
2022/12/12 13:42:12;;;;;;;;;;;18.50;58.40;;;;;;5041725;28;855;-71
2022/12/12 13:44:37;;;;;;;;;;;18.50;58.40;;;;;;5038366;28;900;-71
2022/12/12 13:47:03;;;;;;;;;;;18.50;58.40;;;;;;5055998;28;951;-71
2022/12/12 13:49:52;;;;;;;;;;;18.50;58.40;;;;;;5053130;28;1894;-71
2022/12/12 13:52:27;;;;;;;;;;;18.50;58.40;;;;;;5009736;28;1488;-72
2022/12/12 13:55:17;;;;;;;;;;;18.50;58.40;;;;;;5037945;28;1383;-70
2022/12/12 13:58:01;;;;;;;;;;;18.50;58.40;;;;;;5051621;28;1401;-70
2022/12/12 14:00:29;;;;;;;;;;;18.50;58.40;;;;;;5053708;28;1422;-72
2022/12/12 14:03:04;;;;;;;;;;;18.50;58.40;;;;;;5053301;28;899;-71
2022/12/12 14:05:30;;;;;;;;;;;18.50;58.40;;;;;;5049168;28;1914;-71
2022/12/12 14:07:59;;;;;;;;;;;18.40;58.40;;;;;;5039764;28;1282;-70
2022/12/12 14:10:25;;;;;;;;;;;18.50;58.50;;;;;;5041895;28;1894;-70
2022/12/12 14:12:51;;;;;;;;;;;18.40;58.40;;;;;;5044031;28;1426;-70
2022/12/12 14:15:21;;;;;;;;;;;18.40;58.40;;;;;;5057911;28;1258;-69
2022/12/12 14:17:58;;;;;;;;;;;18.40;58.40;;;;;;5047324;28;923;-70
2022/12/12 14:20:33;;;;;;;;;;;18.40;58.50;;;;;;5023894;28;1532;-69
2022/12/12 14:23:07;;;;;;;;;;;18.40;58.50;;;;;;5044649;28;1428;-70
2022/12/12 14:25:33;;;;;;;;;;;18.40;58.50;;;;;;5039163;28;1398;-68
2022/12/12 14:27:59;;;;;;;;;;;18.40;58.50;;;;;;5039252;28;1464;-70
2022/12/12 14:30:30;;;;;;;;;;;18.40;58.50;;;;;;5058125;28;1915;-70
2022/12/12 14:33:04;;;;;;;;;;;18.40;58.50;;;;;;5042329;28;1390;-69
2022/12/12 14:35:33;;;;;;;;;;;18.40;58.50;;;;;;5058113;28;1495;-69
2022/12/12 14:38:01;;;;;;;;;;;18.40;58.60;;;;;;5041366;28;1668;-70
2022/12/12 14:40:29;;;;;;;;;;;18.40;58.60;;;;;;5055617;28;1445;-70
2022/12/12 14:42:58;;;;;;;;;;;18.40;58.60;;;;;;5041663;28;1427;-69
2022/12/12 14:45:27;;;;;;;;;;;18.40;58.60;;;;;;5055427;28;1551;-69
2022/12/12 14:48:11;;;;;;;;;;;18.40;58.60;;;;;;5044659;28;1316;-70
2022/12/12 14:50:37;;;;;;;;;;;18.40;58.60;;;;;;5053074;28;1906;-70
2022/12/12 14:53:02;;;;;;;;;;;18.30;59.20;;;;;;5036552;28;879;-70
2022/12/12 14:55:28;;;;;;;;;;;18.40;58.70;;;;;;5042078;28;1261;-70
2022/12/12 14:57:53;;;;;;;;;;;18.40;58.70;;;;;;5042092;28;1392;-70
2022/12/12 15:00:19;;;;;;;;;;;18.40;58.70;;;;;;5038844;28;1275;-69
2022/12/12 15:02:48;;;;;;;;;;;18.30;58.70;;;;;;5041622;28;1609;-70
2022/12/12 15:05:14;;;;;;;;;;;18.30;58.70;;;;;;5040652;28;862;-70
2022/12/12 15:07:39;;;;;;;;;;;18.30;58.70;;;;;;5056099;28;904;-69